Uragano ELE 2002: traiettoria, intensità e storia
12 set 2002, 00:00:00
25 ago 2002, 00:00:00 – 12 set 2002, 00:00:00
Traiettoria storica
Segui l’evoluzione e il movimento di Uragano ELE nel 2002, con il percorso completo registrato, venti massimi sostenuti di 115 nodi, pressione centrale minima e cronologia dettagliata.
| Data | Ora | Tipo | Ventokm/h | PressionehPa |
|---|---|---|---|---|
| 12 set | 00:00 | EXCiclone extratropicale | -- | 986 |
| 11 set | 21:00 | EXCiclone extratropicale | -- | 987 |
| 11 set | 18:00 | EXCiclone extratropicale | -- | 988 |
| 11 set | 15:00 | EXCiclone extratropicale | -- | 990 |
| 11 set | 12:00 | EXCiclone extratropicale | -- | 992 |
| 11 set | 09:00 | EXCiclone extratropicale | -- | 992 |
| 11 set | 06:00 | EXCiclone extratropicale | -- | 992 |
| 11 set | 03:00 | EXCiclone extratropicale | -- | 992 |
| 11 set | 00:00 | EXCiclone extratropicale | -- | 992 |
| 10 set | 21:00 | EXCiclone extratropicale | -- | 993 |
| 10 set | 18:00 | EXCiclone extratropicale | -- | 994 |
| 10 set | 15:00 | TDDepressione tropicale | -- | 996 |
| 10 set | 12:00 | EXCiclone extratropicale | 35 | 1004 |
| 10 set | 09:00 | TDDepressione tropicale | 45 | 1004 |
| 10 set | 06:00 | EXCiclone extratropicale | 45 | 1004 |
| 10 set | 03:00 | TDDepressione tropicale | 50 | 1004 |
| 10 set | 00:00 | TDDepressione tropicale | 55 | 1004 |
| 09 set | 21:00 | TDDepressione tropicale | 55 | 1002 |
| 09 set | 18:00 | TDDepressione tropicale | 55 | 1000 |
| 09 set | 15:00 | TSTempesta tropicale | 60 | 999 |
| 09 set | 12:00 | TSTempesta tropicale | 65 | 997 |
| 09 set | 09:00 | TSTempesta tropicale | 65 | 1001 |
| 09 set | 06:00 | TSTempesta tropicale | 65 | 1005 |
| 09 set | 03:00 | TSTempesta tropicale | 65 | 1005 |
| 09 set | 00:00 | TSTempesta tropicale | 65 | 1005 |
| 08 set | 21:00 | TSTempesta tropicale | 65 | 1005 |
| 08 set | 18:00 | TSTempesta tropicale | 65 | 1005 |
| 08 set | 15:00 | TSTempesta tropicale | 70 | 1004 |
| 08 set | 12:00 | TSTempesta tropicale | 75 | 1002 |
| 08 set | 09:00 | TSTempesta tropicale | 75 | 1002 |
| 08 set | 06:00 | TSTempesta tropicale | 75 | 1002 |
| 08 set | 03:00 | TSTempesta tropicale | 75 | 1002 |
| 08 set | 00:00 | STSForte tempesta tropicale | 75 | 1002 |
| 07 set | 21:00 | TSTempesta tropicale | 80 | 1005 |
| 07 set | 18:00 | STSForte tempesta tropicale | 85 | 1007 |
| 07 set | 15:00 | TSTempesta tropicale | 95 | 1001 |
| 07 set | 12:00 | STSForte tempesta tropicale | 100 | 994 |
| 07 set | 09:00 | TSTempesta tropicale | 105 | 992 |
| 07 set | 06:00 | STSForte tempesta tropicale | 110 | 990 |
| 07 set | 03:00 | TTifone | 115 | 989 |
| 07 set | 00:00 | STSForte tempesta tropicale | 120 | 987 |
| 06 set | 21:00 | TTifone | 125 | 986 |
| 06 set | 18:00 | STSForte tempesta tropicale | 130 | 984 |
| 06 set | 15:00 | TTifone | 130 | 984 |
| 06 set | 12:00 | TTifone | 130 | 984 |
| 06 set | 09:00 | TTifone | 130 | 984 |
| 06 set | 06:00 | TTifone | 130 | 984 |
| 06 set | 03:00 | TTifone | 130 | 978 |
| 06 set | 00:00 | TTifone | 130 | 972 |
| 05 set | 21:00 | TTifone | 125 | 980 |
| 05 set | 18:00 | TTifone | 120 | 987 |
| 05 set | 15:00 | TTifone | 120 | 987 |
| 05 set | 12:00 | TTifone | 120 | 987 |
| 05 set | 09:00 | TTifone | 120 | 987 |
| 05 set | 06:00 | TTifone | 120 | 987 |
| 05 set | 03:00 | TTifone | 125 | 980 |
| 05 set | 00:00 | TTifone | 130 | 972 |
| 04 set | 21:00 | TTifone | 135 | 977 |
| 04 set | 18:00 | TTifone | 140 | 981 |
| 04 set | 15:00 | TTifone | 145 | 979 |
| 04 set | 12:00 | TTifone | 150 | 976 |
| 04 set | 09:00 | TTifone | 155 | 975 |
| 04 set | 06:00 | TTifone | 155 | 973 |
| 04 set | 03:00 | TTifone | 165 | 964 |
| 04 set | 00:00 | TTifone | 165 | 954 |
| 03 set | 21:00 | TTifone | 175 | 949 |
| 03 set | 18:00 | STSuper tifone | 185 | 944 |
| 03 set | 15:00 | STSuper tifone | 190 | 950 |
| 03 set | 12:00 | STSuper tifone | 195 | 956 |
| 03 set | 09:00 | STSuper tifone | 200 | 945 |
| 03 set | 06:00 | STSuper tifone | 205 | 933 |
| 03 set | 03:00 | STSuper tifone | 210 | 941 |
| 03 set | 00:00 | STSuper tifone | 215 | 948 |
| 02 set | 21:00 | STSuper tifone | 215 | 938 |
| 02 set | 18:00 | STSuper tifone | 215 | 927 |
| 02 set | 15:00 | STSuper tifone | 215 | 927 |
| 02 set | 12:00 | STSuper tifone | 215 | 927 |
| 02 set | 09:00 | STSuper tifone | 210 | 940 |
| 02 set | 06:00 | STSuper tifone | 205 | 952 |
| 02 set | 03:00 | STSuper tifone | 195 | 957 |
| 02 set | 00:00 | STSuper tifone | 185 | 962 |
| 01 set | 21:00 | STSuper tifone | 185 | 953 |
| 01 set | 18:00 | STSuper tifone | 185 | 944 |
| 01 set | 15:00 | STSuper tifone | 190 | 941 |
| 01 set | 12:00 | STSuper tifone | 195 | 938 |
| 01 set | 09:00 | STSuper tifone | 200 | 936 |
| 01 set | 06:00 | STSuper tifone | 205 | 933 |
| 01 set | 03:00 | STSuper tifone | 210 | 941 |
| 01 set | 00:00 | STSuper tifone | 215 | 948 |
| 31 ago | 21:00 | STSuper tifone | 215 | 948 |
| 31 ago | 18:00 | STSuper tifone | 215 | 948 |
| 31 ago | 15:00 | STSuper tifone | 215 | 948 |
| 31 ago | 12:00 | STSuper tifone | 215 | 948 |
| 31 ago | 09:00 | STSuper tifone | 215 | 948 |
| 31 ago | 06:00 | STSuper tifone | 215 | 948 |
| 31 ago | 03:00 | STSuper tifone | 210 | 941 |
| 31 ago | 00:00 | STSuper tifone | 205 | 933 |
| 30 ago | 21:00 | STSuper tifone | 200 | 936 |
| 30 ago | 18:00 | STSuper tifone | 195 | 938 |
| 30 ago | 15:00 | STSuper tifone | 195 | 947 |
| 30 ago | 12:00 | STSuper tifone | 195 | 956 |
| 30 ago | 09:00 | STSuper tifone | 195 | 956 |
| 30 ago | 06:00 | STSuper tifone | 195 | 956 |
| 30 ago | 03:00 | STSuper tifone | 200 | 951 |
| 30 ago | 00:00 | MHUragano maggiore | 205 | 945 |
| 29 ago | 21:00 | HUragano | 195 | 958 |
| 29 ago | 18:00 | MHUragano maggiore | 185 | 970 |
| 29 ago | 15:00 | HUragano | 175 | 973 |
| 29 ago | 12:00 | HUragano | 165 | 976 |
| 29 ago | 09:00 | HUragano | 165 | 976 |
| 29 ago | 06:00 | HUragano | 165 | 976 |
| 29 ago | 03:00 | HUragano | 155 | 979 |
| 29 ago | 00:00 | HUragano | 140 | 981 |
| 28 ago | 21:00 | HUragano | 140 | 982 |
| 28 ago | 18:00 | HUragano | 140 | 983 |
| 28 ago | 15:00 | HUragano | 140 | 984 |
| 28 ago | 12:00 | HUragano | 140 | 984 |
| 28 ago | 09:00 | HUragano | 130 | 986 |
| 28 ago | 06:00 | HUragano | 120 | 987 |
| 28 ago | 03:00 | HUragano | 120 | 987 |
| 28 ago | 00:00 | HUragano | 120 | 987 |
| 27 ago | 21:00 | TSTempesta tropicale | 115 | 989 |
| 27 ago | 18:00 | TSTempesta tropicale | 110 | 990 |
| 27 ago | 15:00 | TSTempesta tropicale | 110 | 990 |
| 27 ago | 12:00 | TSTempesta tropicale | 110 | 990 |
| 27 ago | 09:00 | TSTempesta tropicale | 95 | 996 |
| 27 ago | 06:00 | TSTempesta tropicale | 75 | 1002 |
| 27 ago | 03:00 | TDDepressione tropicale | 65 | 1006 |
| 27 ago | 00:00 | TDDepressione tropicale | 55 | 1009 |
| 26 ago | 21:00 | TDDepressione tropicale | 50 | 1009 |
| 26 ago | 18:00 | TDDepressione tropicale | 45 | 1008 |
| 26 ago | 15:00 | TDDepressione tropicale | 45 | 1008 |
| 26 ago | 12:00 | TDDepressione tropicale | 45 | 1008 |
| 26 ago | 09:00 | TDDepressione tropicale | 45 | 1008 |
| 26 ago | 06:00 | TDDepressione tropicale | 45 | 1008 |
| 26 ago | 03:00 | TDDepressione tropicale | 35 | -- |
| 26 ago | 00:00 | TDDepressione tropicale | 30 | -- |
| 25 ago | 21:00 | TDDepressione tropicale | 30 | -- |
| 25 ago | 18:00 | TDDepressione tropicale | 30 | -- |
| 25 ago | 15:00 | TDDepressione tropicale | 30 | -- |
| 25 ago | 12:00 | TDDepressione tropicale | 30 | -- |
| 25 ago | 09:00 | TDDepressione tropicale | 30 | -- |
| 25 ago | 06:00 | TDDepressione tropicale | 30 | -- |
| 25 ago | 03:00 | TDDepressione tropicale | 30 | -- |
| 25 ago | 00:00 | TDDepressione tropicale | 30 | -- |
Evoluzione dell’evento
145 Posizioni registrateDettagli evento
Link alle fonti
La posizione, l’estensione e lo stato di un evento possono essere aggiornati in momenti diversi a seconda della fonte. Per decisioni importanti, consulta gli enti ufficiali competenti.
I dati degli eventi provengono da NASA EONET e sono integrati con le registrazioni di frane di USGS FDSN. Le analisi e le previsioni delle tempeste possono utilizzare NOAA NHC o JTWC e, quando disponibili, gli archivi storici ATCF di UCAR/NCAR. Le immagini satellitari provengono da NASA Worldview/GIBS (GOES e Himawari) o da EUMETSAT Meteosat, in base alla copertura della mappa.
Fonti: NASA EONET · USGS · NOAA NHC · JTWC · UCAR/NCAR ATCF · NASA Worldview/GIBS · EUMETSAT Meteosat · OpenStreetMap contributors